createdAt,value
2023-01-23T00:02:07.278Z,1.92
2023-01-23T00:04:33.820Z,1.93
2023-01-23T00:07:00.363Z,1.91
2023-01-23T00:09:26.824Z,1.92
2023-01-23T00:11:53.257Z,2.07
2023-01-23T00:14:19.737Z,1.97
2023-01-23T00:16:46.256Z,1.99
2023-01-23T00:19:12.842Z,2.10
2023-01-23T00:21:39.563Z,1.99
2023-01-23T00:24:06.619Z,1.95
2023-01-23T00:26:33.306Z,1.97
2023-01-23T00:29:00.113Z,1.97
2023-01-23T00:31:29.383Z,2.00
2023-01-23T00:34:02.085Z,2.02
2023-01-23T00:36:31.625Z,1.97
2023-01-23T00:38:58.524Z,1.96
2023-01-23T00:41:25.977Z,1.98
2023-01-23T00:43:52.730Z,1.93
2023-01-23T00:46:20.953Z,1.94
2023-01-23T00:48:47.940Z,2.02
2023-01-23T00:51:14.533Z,2.03
2023-01-23T00:53:41.101Z,1.98
2023-01-23T00:56:08.319Z,1.99
2023-01-23T00:58:34.880Z,2.02
2023-01-23T01:01:01.360Z,1.94
2023-01-23T01:03:27.931Z,1.92
2023-01-23T01:05:54.432Z,1.96
2023-01-23T01:08:20.942Z,1.92
2023-01-23T01:10:47.513Z,1.82
2023-01-23T01:13:14.538Z,1.94
2023-01-23T01:15:41.249Z,1.96
2023-01-23T01:18:07.726Z,1.89
2023-01-23T01:20:34.325Z,1.90
2023-01-23T01:23:00.848Z,1.93
2023-01-23T01:25:27.803Z,1.92
2023-01-23T01:27:55.975Z,1.93
2023-01-23T01:30:23.034Z,1.88
2023-01-23T01:32:50.320Z,1.86
2023-01-23T01:35:16.955Z,1.96
2023-01-23T01:37:43.583Z,1.93
2023-01-23T01:40:15.394Z,1.92
2023-01-23T01:42:52.847Z,1.93
2023-01-23T01:45:56.736Z,1.90
2023-01-23T01:48:27.357Z,1.87
2023-01-23T01:50:54.479Z,1.92
2023-01-23T01:53:25.749Z,1.96
2023-01-23T01:55:53.328Z,2.01
2023-01-23T01:58:20.156Z,1.93
2023-01-23T02:00:46.734Z,1.91
2023-01-23T02:03:13.240Z,1.94
2023-01-23T02:05:45.273Z,2.12
2023-01-23T02:08:30.051Z,2.23
2023-01-23T02:10:56.776Z,2.25
2023-01-23T02:13:35.982Z,2.24
2023-01-23T02:16:14.516Z,2.12
2023-01-23T02:18:47.273Z,2.06
2023-01-23T02:21:16.924Z,2.11
2023-01-23T02:23:56.300Z,2.10
2023-01-23T02:26:32.728Z,2.05
2023-01-23T02:29:00.058Z,1.98
2023-01-23T02:31:27.136Z,2.03
2023-01-23T02:33:56.576Z,2.06
2023-01-23T02:36:29.022Z,2.09
2023-01-23T02:39:08.596Z,2.13
2023-01-23T02:41:41.808Z,1.97
2023-01-23T02:44:19.795Z,1.91
2023-01-23T02:46:46.346Z,1.94
2023-01-23T02:49:13.063Z,2.00
2023-01-23T02:51:39.568Z,2.11
2023-01-23T02:54:06.323Z,2.19
2023-01-23T02:56:33.997Z,2.13
2023-01-23T02:59:20.992Z,2.10
2023-01-23T03:01:47.720Z,2.26
2023-01-23T03:04:14.240Z,2.28
2023-01-23T03:06:40.757Z,2.27
2023-01-23T03:09:10.851Z,2.23
2023-01-23T03:11:39.309Z,2.01
2023-01-23T03:14:09.087Z,2.08
2023-01-23T03:16:38.323Z,2.10
2023-01-23T03:19:08.259Z,2.04
2023-01-23T03:21:40.589Z,2.09
2023-01-23T03:24:09.607Z,1.98
2023-01-23T03:26:39.981Z,1.98
2023-01-23T03:29:25.028Z,2.08
2023-01-23T03:31:51.822Z,2.08
2023-01-23T03:34:19.119Z,2.13
2023-01-23T03:36:45.729Z,2.17
2023-01-23T03:39:31.047Z,2.14
2023-01-23T03:41:57.576Z,2.17
2023-01-23T03:44:24.150Z,2.13
2023-01-23T03:46:51.886Z,2.08
2023-01-23T03:49:19.391Z,2.12
2023-01-23T03:51:45.977Z,2.07
2023-01-23T03:54:14.634Z,2.04
2023-01-23T03:56:42.389Z,1.97
2023-01-23T03:59:09.322Z,1.97
2023-01-23T04:01:36.896Z,1.98
2023-01-23T04:04:04.253Z,2.02
2023-01-23T04:06:30.944Z,2.12
2023-01-23T04:08:58.275Z,2.13
2023-01-23T04:11:26.462Z,2.15
2023-01-23T04:13:54.162Z,2.15
2023-01-23T04:16:22.825Z,2.12
2023-01-23T04:18:52.596Z,2.03
2023-01-23T04:21:19.144Z,2.18
2023-01-23T04:23:45.972Z,2.05
2023-01-23T04:26:13.275Z,1.97
2023-01-23T04:28:39.785Z,2.02
2023-01-23T04:31:06.820Z,2.04
2023-01-23T04:33:33.461Z,1.89
2023-01-23T04:36:01.723Z,1.99
2023-01-23T04:38:29.537Z,2.04
2023-01-23T04:40:56.494Z,2.00
2023-01-23T04:43:23.043Z,2.10
2023-01-23T04:45:53.887Z,2.02
2023-01-23T04:48:20.630Z,2.12
2023-01-23T04:50:47.586Z,1.84
2023-01-23T04:53:14.576Z,1.79
2023-01-23T04:55:41.346Z,1.77
2023-01-23T04:58:08.213Z,1.80
2023-01-23T05:00:34.723Z,1.91
2023-01-23T05:03:02.660Z,1.86
2023-01-23T05:05:29.406Z,1.87
2023-01-23T05:07:55.852Z,2.02
2023-01-23T05:10:22.876Z,1.96
2023-01-23T05:12:49.569Z,2.07
2023-01-23T05:15:17.285Z,1.99
2023-01-23T05:17:44.002Z,2.09
2023-01-23T05:20:11.293Z,2.00
2023-01-23T05:22:38.066Z,2.02
2023-01-23T05:25:05.085Z,2.04
2023-01-23T05:27:31.668Z,2.00
2023-01-23T05:29:58.192Z,2.09
2023-01-23T05:32:24.740Z,2.09
2023-01-23T05:34:51.275Z,2.07
2023-01-23T05:37:17.899Z,2.09
2023-01-23T05:39:44.380Z,2.23
2023-01-23T05:42:10.875Z,2.19
2023-01-23T05:44:37.379Z,2.24
2023-01-23T05:47:03.927Z,2.20
2023-01-23T05:49:30.430Z,2.25
2023-01-23T05:51:56.872Z,2.27
2023-01-23T05:54:23.316Z,2.17
2023-01-23T05:56:49.880Z,2.02
2023-01-23T05:59:16.379Z,2.14
2023-01-23T06:01:42.844Z,2.10
2023-01-23T06:04:09.449Z,2.01
2023-01-23T06:06:36.031Z,2.08
2023-01-23T06:09:02.535Z,2.16
2023-01-23T06:11:28.982Z,2.14
2023-01-23T06:13:55.529Z,1.98
2023-01-23T06:16:22.069Z,2.07
2023-01-23T06:18:48.595Z,2.09
2023-01-23T06:21:17.812Z,2.01
2023-01-23T06:23:47.067Z,1.99
2023-01-23T06:26:13.993Z,2.07
2023-01-23T06:28:40.751Z,1.98
2023-01-23T06:31:09.393Z,1.96
2023-01-23T06:33:38.910Z,1.91
2023-01-23T06:36:07.177Z,1.77
2023-01-23T06:38:33.895Z,1.80
2023-01-23T06:41:01.085Z,1.83
2023-01-23T06:43:27.919Z,1.94
2023-01-23T06:45:54.425Z,1.88
2023-01-23T06:48:21.950Z,1.79
2023-01-23T06:50:48.889Z,1.91
2023-01-23T06:53:16.741Z,1.76
2023-01-23T06:55:43.354Z,1.71
2023-01-23T06:58:10.018Z,1.70
2023-01-23T07:00:36.501Z,1.72
2023-01-23T07:03:03.736Z,1.68
2023-01-23T07:05:31.128Z,1.56
2023-01-23T07:07:57.659Z,1.62
2023-01-23T07:10:24.383Z,1.70
2023-01-23T07:12:50.880Z,1.65
2023-01-23T07:15:17.681Z,1.67
2023-01-23T07:17:44.651Z,1.72
2023-01-23T07:20:11.540Z,1.73
2023-01-23T07:22:38.034Z,1.87
2023-01-23T07:25:05.311Z,1.83
2023-01-23T07:27:33.087Z,2.01
2023-01-23T07:29:59.599Z,2.08
2023-01-23T07:32:26.180Z,2.20
2023-01-23T07:34:53.241Z,2.09
2023-01-23T07:37:20.645Z,2.07
2023-01-23T07:39:47.130Z,2.04
2023-01-23T07:42:13.589Z,2.00
2023-01-23T07:44:40.080Z,2.02
2023-01-23T07:47:06.579Z,2.09
2023-01-23T07:49:33.124Z,2.12
2023-01-23T07:51:59.640Z,2.21
2023-01-23T07:54:26.080Z,2.20
2023-01-23T07:56:52.612Z,2.23
2023-01-23T07:59:19.147Z,2.20
2023-01-23T08:01:45.695Z,2.18
2023-01-23T08:04:12.295Z,2.11
2023-01-23T08:06:38.943Z,2.12
2023-01-23T08:09:05.492Z,2.19
2023-01-23T08:11:34.293Z,2.06
2023-01-23T08:14:01.001Z,2.07
2023-01-23T08:16:28.284Z,2.04
2023-01-23T08:18:54.960Z,2.03
2023-01-23T08:21:22.034Z,2.13
2023-01-23T08:23:48.750Z,2.22
2023-01-23T08:26:17.339Z,2.19
2023-01-23T08:28:45.148Z,2.36
2023-01-23T08:31:13.220Z,2.20
2023-01-23T08:33:40.152Z,2.29
2023-01-23T08:36:09.518Z,2.22
2023-01-23T08:38:37.941Z,2.17
2023-01-23T08:41:05.109Z,2.12
2023-01-23T08:43:33.147Z,2.16
2023-01-23T08:46:00.059Z,2.24
2023-01-23T08:48:27.582Z,2.26
2023-01-23T08:51:01.650Z,2.37
2023-01-23T08:53:29.544Z,2.29
2023-01-23T08:56:05.066Z,2.24
2023-01-23T08:58:31.782Z,2.28
2023-01-23T09:00:58.679Z,2.25
2023-01-23T09:03:25.720Z,2.23
2023-01-23T09:05:52.239Z,2.12
2023-01-23T09:08:18.798Z,2.11
2023-01-23T09:10:45.291Z,1.93
2023-01-23T09:13:11.865Z,2.03
2023-01-23T09:15:39.501Z,2.04
2023-01-23T09:18:06.555Z,2.08
2023-01-23T09:20:33.348Z,2.07
2023-01-23T09:22:59.978Z,1.97
2023-01-23T09:25:26.494Z,1.93
2023-01-23T09:27:53.064Z,2.14
2023-01-23T09:30:19.898Z,2.18
2023-01-23T09:32:46.625Z,2.40
2023-01-23T09:35:13.096Z,2.48
2023-01-23T09:37:59.061Z,2.40
2023-01-23T09:40:27.735Z,2.55
2023-01-23T09:42:57.050Z,2.38
2023-01-23T09:45:27.604Z,2.59
2023-01-23T09:48:20.128Z,2.44
2023-01-23T09:50:56.453Z,2.33
2023-01-23T09:53:26.970Z,2.32
2023-01-23T09:56:07.093Z,2.47
2023-01-23T09:58:46.249Z,2.56
2023-01-23T10:01:13.814Z,2.51
2023-01-23T10:03:41.274Z,2.51
2023-01-23T10:06:24.412Z,2.63
2023-01-23T10:09:04.789Z,2.64
2023-01-23T10:11:42.752Z,2.60
2023-01-23T10:14:30.886Z,2.55
2023-01-23T10:17:08.469Z,2.50
2023-01-23T10:19:51.851Z,2.71
2023-01-23T10:22:49.044Z,2.73
2023-01-23T10:25:21.657Z,2.67
2023-01-23T10:27:50.809Z,2.67
2023-01-23T10:30:28.120Z,2.74
2023-01-23T10:33:09.918Z,2.79
2023-01-23T10:35:47.533Z,2.78
2023-01-23T10:38:27.744Z,2.73
2023-01-23T10:41:12.945Z,2.83
2023-01-23T10:43:40.739Z,2.70
2023-01-23T10:46:16.706Z,2.75
2023-01-23T10:48:49.921Z,2.76
2023-01-23T10:51:46.771Z,2.48
2023-01-23T10:54:30.636Z,2.43
2023-01-23T10:56:59.584Z,2.38
2023-01-23T10:59:28.946Z,2.36
2023-01-23T11:02:20.162Z,2.42
2023-01-23T11:04:49.320Z,2.49
2023-01-23T11:07:22.555Z,2.46
2023-01-23T11:09:50.805Z,2.45
2023-01-23T11:12:21.624Z,2.44
2023-01-23T11:14:48.939Z,2.40
2023-01-23T11:17:19.480Z,2.47
2023-01-23T11:19:48.567Z,2.49
2023-01-23T11:22:31.128Z,2.56
2023-01-23T11:24:58.558Z,2.66
2023-01-23T11:27:29.684Z,2.70
2023-01-23T11:30:31.508Z,2.56
2023-01-23T11:33:05.657Z,2.53
2023-01-23T11:35:57.449Z,2.47
2023-01-23T11:38:31.846Z,2.54
2023-01-23T11:40:59.137Z,2.49
2023-01-23T11:43:25.705Z,2.48
2023-01-23T11:46:15.419Z,2.51
2023-01-23T11:49:14.257Z,2.58
2023-01-23T11:51:56.019Z,2.63
2023-01-23T11:54:58.802Z,2.54
2023-01-23T11:57:34.202Z,2.64
2023-01-23T12:00:33.141Z,2.62
2023-01-23T12:03:18.184Z,2.72
2023-01-23T12:06:19.246Z,2.78
2023-01-23T12:08:56.679Z,2.83
2023-01-23T12:11:24.603Z,2.78
2023-01-23T12:14:21.189Z,2.98
2023-01-23T12:16:59.563Z,2.93
2023-01-23T12:19:37.876Z,2.94
2023-01-23T12:22:19.647Z,2.80
2023-01-23T12:25:13.836Z,2.71
2023-01-23T12:27:57.815Z,2.58
2023-01-23T12:30:38.993Z,2.79
2023-01-23T12:33:17.903Z,2.81
2023-01-23T12:35:47.582Z,3.01
2023-01-23T12:38:36.935Z,2.91
2023-01-23T12:41:20.787Z,3.09
2023-01-23T12:43:50.457Z,3.15
2023-01-23T12:46:26.881Z,3.18
2023-01-23T12:49:14.549Z,3.11
2023-01-23T12:51:45.919Z,3.15
2023-01-23T12:54:21.162Z,3.17
2023-01-23T12:59:24.992Z,3.20
2023-01-23T13:01:58.244Z,3.19
2023-01-23T13:04:39.897Z,3.18
2023-01-23T13:07:09.404Z,3.20
2023-01-23T13:10:03.660Z,3.17
2023-01-23T13:12:30.513Z,3.31
2023-01-23T13:15:38.728Z,3.45
2023-01-23T13:18:06.246Z,3.42
2023-01-23T13:20:57.981Z,3.51
2023-01-23T13:23:29.186Z,3.47
2023-01-23T13:26:12.582Z,3.51
2023-01-23T13:28:53.880Z,3.45
2023-01-23T13:32:15.642Z,3.34
2023-01-23T13:34:42.207Z,3.44
2023-01-23T13:37:50.977Z,3.51
2023-01-23T13:40:20.980Z,3.50
2023-01-23T13:42:47.603Z,3.57
2023-01-23T13:45:21.061Z,3.51
2023-01-23T14:22:46.732Z,3.58
2023-01-23T14:25:17.618Z,3.57
2023-01-23T14:27:53.304Z,3.60
2023-01-23T14:30:30.246Z,3.63
2023-01-23T14:32:56.854Z,3.71
2023-01-23T14:35:29.099Z,3.70
2023-01-23T14:38:02.403Z,3.59
2023-01-23T14:40:37.333Z,3.50
2023-01-23T14:43:09.125Z,3.53
2023-01-23T14:45:37.347Z,3.47
2023-01-23T14:48:07.559Z,3.54
2023-01-23T14:50:34.551Z,3.52
2023-01-23T14:53:06.454Z,3.52
2023-01-23T14:55:37.415Z,3.50
2023-01-23T14:58:04.888Z,3.50
2023-01-23T15:00:32.021Z,3.50
2023-01-23T15:02:58.680Z,3.43
2023-01-23T15:05:27.907Z,3.42
2023-01-23T15:08:07.409Z,3.48
2023-01-23T15:10:42.753Z,3.57
2023-01-23T15:13:21.437Z,3.47
2023-01-23T15:15:55.619Z,3.50
2023-01-23T15:18:27.971Z,3.53
2023-01-23T15:20:57.127Z,3.52
2023-01-23T15:23:37.913Z,3.50
2023-01-23T15:26:19.649Z,3.57
2023-01-23T15:28:51.718Z,3.60
2023-01-23T15:31:27.372Z,3.61
2023-01-23T15:33:54.959Z,3.53
2023-01-23T15:36:27.755Z,3.58
2023-01-23T15:38:56.544Z,3.58
2023-01-23T15:41:39.440Z,3.61
2023-01-23T15:44:13.729Z,3.59
2023-01-23T15:46:40.345Z,3.49
2023-01-23T15:49:10.775Z,3.58
2023-01-23T15:51:43.038Z,3.55
2023-01-23T15:54:19.933Z,3.58
2023-01-23T15:56:48.830Z,3.46
2023-01-23T15:59:20.705Z,3.39
2023-01-23T16:01:47.364Z,3.44
2023-01-23T16:04:14.019Z,3.47
2023-01-23T16:06:40.951Z,3.52
2023-01-23T16:09:09.929Z,3.50
2023-01-23T16:11:38.572Z,3.51
2023-01-23T16:14:05.094Z,3.49
2023-01-23T16:16:31.701Z,3.51
2023-01-23T16:18:58.234Z,3.37
2023-01-23T16:21:29.796Z,3.49
2023-01-23T16:23:57.208Z,3.58
2023-01-23T16:26:26.384Z,3.53
2023-01-23T16:28:57.163Z,3.60
2023-01-23T16:31:31.737Z,3.66
2023-01-23T16:33:58.387Z,3.60
2023-01-23T16:36:24.892Z,3.67
2023-01-23T16:38:56.382Z,3.75
2023-01-23T16:41:22.943Z,3.85
2023-01-23T16:43:49.551Z,3.98
2023-01-23T16:46:16.085Z,3.86
2023-01-23T16:48:42.574Z,3.98
2023-01-23T16:51:21.870Z,3.67
2023-01-23T16:53:58.650Z,3.74
2023-01-23T16:56:50.964Z,3.69
2023-01-23T16:59:21.672Z,3.70
2023-01-23T17:01:50.993Z,3.79
2023-01-23T17:04:20.676Z,3.74
2023-01-23T17:06:48.003Z,3.72
2023-01-23T17:09:15.344Z,3.74
2023-01-23T17:11:52.731Z,3.54
2023-01-23T17:14:27.759Z,3.67
2023-01-23T17:17:09.890Z,3.71
2023-01-23T17:19:41.374Z,3.69
2023-01-23T17:22:18.972Z,3.61
2023-01-23T17:24:45.534Z,3.70
2023-01-23T17:27:12.028Z,3.67
2023-01-23T17:29:38.504Z,3.72
2023-01-23T17:32:05.432Z,3.79
2023-01-23T17:34:45.187Z,3.72
2023-01-23T17:37:21.080Z,3.76
2023-01-23T17:39:47.705Z,3.71
2023-01-23T17:42:14.616Z,3.76
2023-01-23T17:44:41.387Z,3.82
2023-01-23T17:47:13.914Z,3.71
2023-01-23T17:49:43.856Z,3.61
2023-01-23T17:52:11.504Z,3.72
2023-01-23T17:54:38.203Z,3.68
2023-01-23T17:57:04.873Z,3.62
2023-01-23T17:59:31.932Z,3.79
2023-01-23T18:01:58.620Z,3.54
2023-01-23T18:04:25.116Z,3.58
2023-01-23T18:06:51.723Z,3.60
2023-01-23T18:09:21.360Z,3.49
2023-01-23T18:11:52.380Z,3.43
2023-01-23T18:14:24.790Z,3.34
2023-01-23T18:16:51.634Z,3.40
2023-01-23T18:19:23.560Z,3.53
2023-01-23T18:21:52.997Z,3.52
2023-01-23T18:24:31.461Z,3.40
2023-01-23T18:27:24.627Z,3.54
2023-01-23T18:30:27.484Z,3.39
2023-01-23T18:33:13.082Z,3.41
2023-01-23T18:35:42.563Z,3.38
2023-01-23T18:38:36.015Z,3.52
2023-01-23T18:41:25.117Z,3.52
2023-01-23T18:44:02.686Z,3.59
2023-01-23T18:46:29.483Z,3.63
2023-01-23T18:48:56.351Z,3.51
2023-01-23T18:51:32.584Z,3.52
2023-01-23T18:54:08.321Z,3.54
2023-01-23T18:56:50.944Z,3.55
2023-01-23T18:59:26.601Z,3.43
2023-01-23T19:02:47.360Z,3.43
2023-01-23T19:05:21.185Z,3.44
2023-01-23T19:07:49.554Z,3.46
2023-01-23T19:10:19.272Z,3.43
2023-01-23T19:12:48.481Z,3.51
2023-01-23T19:16:05.816Z,3.51
2023-01-23T19:19:17.319Z,3.54
2023-01-23T19:21:46.625Z,3.43
2023-01-23T19:24:18.196Z,3.47
2023-01-23T19:26:45.052Z,3.44
2023-01-23T19:29:21.464Z,3.40
2023-01-23T19:32:04.155Z,3.37
2023-01-23T19:34:31.752Z,3.26
2023-01-23T19:36:58.245Z,3.19
2023-01-23T19:39:24.693Z,3.24
2023-01-23T19:41:51.908Z,3.11
2023-01-23T19:44:20.258Z,3.12
2023-01-23T19:46:47.541Z,3.11
2023-01-23T19:49:14.069Z,3.03
2023-01-23T19:51:41.369Z,3.14
2023-01-23T19:54:09.479Z,3.16
2023-01-23T19:56:37.187Z,3.22
2023-01-23T19:59:03.637Z,3.26
2023-01-23T20:01:46.712Z,3.26
2023-01-23T20:04:16.097Z,3.10
2023-01-23T20:06:45.302Z,3.17
2023-01-23T20:09:14.612Z,3.09
2023-01-23T20:11:42.873Z,3.18
2023-01-23T20:14:09.671Z,3.13
2023-01-23T20:16:40.234Z,3.02
2023-01-23T20:19:07.537Z,3.06
2023-01-23T20:21:34.436Z,3.04
2023-01-23T20:24:00.957Z,3.08
2023-01-23T20:26:27.601Z,3.07
2023-01-23T20:28:54.128Z,3.11
2023-01-23T20:31:21.594Z,3.12
2023-01-23T20:33:48.376Z,3.10
2023-01-23T20:36:15.985Z,3.09
2023-01-23T20:38:43.428Z,3.04
2023-01-23T20:41:15.664Z,2.85
2023-01-23T20:43:45.640Z,2.92
2023-01-23T20:46:13.875Z,3.01
2023-01-23T20:48:43.961Z,3.06
2023-01-23T20:51:11.039Z,2.92
2023-01-23T20:53:39.965Z,2.98
2023-01-23T20:56:12.168Z,3.06
2023-01-23T20:59:00.065Z,2.90
2023-01-23T21:01:29.678Z,2.94
2023-01-23T21:03:56.713Z,2.90
2023-01-23T21:06:23.259Z,2.77
2023-01-23T21:08:49.775Z,2.91
2023-01-23T21:11:18.496Z,2.98
2023-01-23T21:13:50.733Z,3.10
2023-01-23T21:16:18.113Z,2.96
2023-01-23T21:18:46.898Z,2.96
2023-01-23T21:21:17.245Z,2.98
2023-01-23T21:23:46.606Z,2.99
2023-01-23T21:26:13.185Z,3.03
2023-01-23T21:28:39.760Z,2.86
2023-01-23T21:31:12.890Z,2.91
2023-01-23T21:33:40.736Z,2.97
2023-01-23T21:36:07.761Z,3.04
2023-01-23T21:38:34.230Z,3.02
2023-01-23T21:41:00.748Z,2.85
2023-01-23T21:43:27.296Z,2.90
2023-01-23T21:45:53.803Z,3.02
2023-01-23T21:48:20.342Z,3.07
2023-01-23T21:50:46.833Z,3.02
2023-01-23T21:53:13.316Z,2.90
2023-01-23T21:55:39.794Z,2.86
2023-01-23T21:58:06.393Z,2.89
2023-01-23T22:00:59.648Z,2.84
2023-01-23T22:03:26.107Z,2.86
2023-01-23T22:05:57.576Z,2.90
2023-01-23T22:08:24.074Z,2.90
2023-01-23T22:10:50.576Z,2.97
2023-01-23T22:13:17.028Z,2.94
2023-01-23T22:15:43.602Z,2.95
2023-01-23T22:18:10.110Z,2.94
2023-01-23T22:20:38.239Z,2.83
2023-01-23T22:23:04.797Z,2.86
2023-01-23T22:25:31.524Z,2.89
2023-01-23T22:27:57.978Z,2.85
2023-01-23T22:30:24.564Z,2.81
2023-01-23T22:32:51.172Z,2.84
2023-01-23T22:35:17.746Z,2.66
2023-01-23T22:37:44.273Z,2.71
2023-01-23T22:40:11.242Z,2.71
2023-01-23T22:42:37.918Z,2.83
2023-01-23T22:45:05.394Z,2.84
2023-01-23T22:47:31.945Z,2.70
2023-01-23T22:49:58.485Z,2.65
2023-01-23T22:52:24.988Z,2.76
2023-01-23T22:54:51.547Z,2.74
2023-01-23T22:57:18.002Z,2.83
2023-01-23T22:59:44.476Z,2.59
2023-01-23T23:02:10.916Z,2.72
2023-01-23T23:04:37.480Z,2.72
2023-01-23T23:07:03.967Z,2.84
2023-01-23T23:09:30.453Z,2.83
2023-01-23T23:11:57.324Z,2.84
2023-01-23T23:14:23.907Z,2.88
2023-01-23T23:16:50.424Z,2.85
2023-01-23T23:19:16.865Z,2.86
2023-01-23T23:21:43.407Z,2.89
2023-01-23T23:24:12.750Z,2.88
2023-01-23T23:26:39.271Z,2.84
2023-01-23T23:29:06.084Z,2.77
2023-01-23T23:31:32.757Z,2.84
2023-01-23T23:33:59.648Z,2.84
2023-01-23T23:36:26.197Z,2.87
2023-01-23T23:38:52.780Z,2.83
2023-01-23T23:41:19.458Z,2.86
2023-01-23T23:43:46.077Z,2.93
2023-01-23T23:46:13.780Z,2.78
2023-01-23T23:48:40.485Z,2.81
2023-01-23T23:51:09.516Z,2.70
2023-01-23T23:53:36.758Z,2.92
2023-01-23T23:56:04.607Z,2.97
2023-01-23T23:58:31.627Z,3.02
